KFOE/FOE METAR and TAF weather

Enter ICAO airport designator
Station Type Date Time Source
KFOE METAR 2019/02/23 00:29 UTC NOAA

KFOE 230029Z 11010KT 3SM BR OVC004 02/01 A3001 RMK AO2 T00220006


Station Type Date Time Source
KFOE Decoded METAR 2019/02/23 00:29 UTC NOAA

FORBES FIELD, KS, United States (KFOE) 38-56N 95-39W 320M
Feb 22, 2019 - 07:29 PM EST / 2019.02.23 0029 UTC
Wind: from the ESE (110 degrees) at 12 MPH (10 KT):0
Visibility: 3 mile(s):0
Sky conditions: overcast
Weather: mist
Temperature: 36.0 F (2.2 C)
Dew Point: 33.1 F (0.6 C)
Relative Humidity: 89%
Pressure (altimeter): 30.01 in. Hg (1016 hPa)
ob: KFOE 230029Z 11010KT 3SM BR OVC004 02/01 A3001 RMK AO2 T00220006
cycle: 0

Station Type Date Time Source
KFOE TAF 2019/02/23 00:06 UTC NOAA

TAF
AMD KFOE 230004Z 2300/2324 09008KT 1SM -DZ BR OVC005
FM230100 09006KT 1SM -RA BR OVC003
FM231600 08011KT 2SM RA VCTS OVC004CB
FM232000 23011KT 6SM BR VCSH OVC013
TEMPO 2321/2324 SCT013 BKN035


Example: see airport list